sensor_id;sensor_type;location;lat;lon;timestamp;P1;durP1;ratioP1;P2;durP2;ratioP2
64075;SDS011;50327;51.328;12.324;2023-08-06T00:01:51;8.98;;;3.40;;
64075;SDS011;50327;51.328;12.324;2023-08-06T00:04:17;9.80;;;3.30;;
64075;SDS011;50327;51.328;12.324;2023-08-06T00:06:42;6.53;;;3.70;;
64075;SDS011;50327;51.328;12.324;2023-08-06T00:09:07;6.68;;;3.65;;
64075;SDS011;50327;51.328;12.324;2023-08-06T00:11:33;9.13;;;3.75;;
64075;SDS011;50327;51.328;12.324;2023-08-06T00:13:58;7.55;;;3.58;;
64075;SDS011;50327;51.328;12.324;2023-08-06T00:16:24;7.40;;;3.30;;
64075;SDS011;50327;51.328;12.324;2023-08-06T00:18:49;6.40;;;3.60;;
64075;SDS011;50327;51.328;12.324;2023-08-06T00:21:15;5.97;;;3.28;;
64075;SDS011;50327;51.328;12.324;2023-08-06T00:23:40;5.13;;;2.75;;
64075;SDS011;50327;51.328;12.324;2023-08-06T00:26:06;8.45;;;3.60;;
64075;SDS011;50327;51.328;12.324;2023-08-06T00:28:31;4.93;;;3.00;;
64075;SDS011;50327;51.328;12.324;2023-08-06T00:30:57;5.32;;;2.95;;
64075;SDS011;50327;51.328;12.324;2023-08-06T00:33:22;8.52;;;3.47;;
64075;SDS011;50327;51.328;12.324;2023-08-06T00:35:48;6.47;;;3.17;;
64075;SDS011;50327;51.328;12.324;2023-08-06T00:38:14;12.65;;;3.78;;
64075;SDS011;50327;51.328;12.324;2023-08-06T00:40:39;7.40;;;3.60;;
64075;SDS011;50327;51.328;12.324;2023-08-06T00:43:05;8.55;;;3.85;;
64075;SDS011;50327;51.328;12.324;2023-08-06T00:45:30;6.70;;;3.53;;
64075;SDS011;50327;51.328;12.324;2023-08-06T00:47:59;8.90;;;3.42;;
64075;SDS011;50327;51.328;12.324;2023-08-06T00:50:25;6.13;;;3.38;;
64075;SDS011;50327;51.328;12.324;2023-08-06T00:52:51;6.40;;;3.20;;
64075;SDS011;50327;51.328;12.324;2023-08-06T00:55:17;9.77;;;4.05;;
64075;SDS011;50327;51.328;12.324;2023-08-06T00:57:43;9.73;;;3.70;;
64075;SDS011;50327;51.328;12.324;2023-08-06T01:00:08;7.50;;;3.22;;
64075;SDS011;50327;51.328;12.324;2023-08-06T01:02:34;7.00;;;3.15;;
64075;SDS011;50327;51.328;12.324;2023-08-06T01:04:59;7.18;;;3.60;;
64075;SDS011;50327;51.328;12.324;2023-08-06T01:13:08;7.82;;;3.33;;
64075;SDS011;50327;51.328;12.324;2023-08-06T01:15:45;13.90;;;5.25;;
64075;SDS011;50327;51.328;12.324;2023-08-06T01:18:14;8.50;;;4.05;;
64075;SDS011;50327;51.328;12.324;2023-08-06T01:20:40;8.13;;;3.60;;
64075;SDS011;50327;51.328;12.324;2023-08-06T01:23:05;7.28;;;3.83;;
64075;SDS011;50327;51.328;12.324;2023-08-06T01:25:35;8.98;;;3.50;;
64075;SDS011;50327;51.328;12.324;2023-08-06T01:28:18;7.63;;;3.60;;
64075;SDS011;50327;51.328;12.324;2023-08-06T01:30:55;7.05;;;4.10;;
64075;SDS011;50327;51.328;12.324;2023-08-06T01:33:25;6.43;;;3.13;;
64075;SDS011;50327;51.328;12.324;2023-08-06T01:35:55;8.65;;;3.90;;
64075;SDS011;50327;51.328;12.324;2023-08-06T01:38:21;12.88;;;4.30;;
64075;SDS011;50327;51.328;12.324;2023-08-06T01:40:46;7.85;;;3.83;;
64075;SDS011;50327;51.328;12.324;2023-08-06T01:43:12;6.93;;;4.10;;
64075;SDS011;50327;51.328;12.324;2023-08-06T01:45:37;11.27;;;4.30;;
64075;SDS011;50327;51.328;12.324;2023-08-06T01:48:03;9.27;;;4.30;;
64075;SDS011;50327;51.328;12.324;2023-08-06T01:50:28;9.73;;;4.40;;
64075;SDS011;50327;51.328;12.324;2023-08-06T01:52:53;7.18;;;4.38;;
64075;SDS011;50327;51.328;12.324;2023-08-06T01:55:19;6.13;;;3.17;;
64075;SDS011;50327;51.328;12.324;2023-08-06T01:57:44;8.18;;;3.70;;
64075;SDS011;50327;51.328;12.324;2023-08-06T02:00:10;6.55;;;4.13;;
64075;SDS011;50327;51.328;12.324;2023-08-06T02:02:36;8.15;;;3.40;;
64075;SDS011;50327;51.328;12.324;2023-08-06T02:05:01;5.63;;;3.53;;
64075;SDS011;50327;51.328;12.324;2023-08-06T02:07:27;7.63;;;3.90;;
64075;SDS011;50327;51.328;12.324;2023-08-06T02:09:52;5.40;;;3.42;;
64075;SDS011;50327;51.328;12.324;2023-08-06T02:12:17;7.35;;;3.50;;
64075;SDS011;50327;51.328;12.324;2023-08-06T02:14:43;7.38;;;3.83;;
64075;SDS011;50327;51.328;12.324;2023-08-06T02:17:08;7.72;;;4.20;;
64075;SDS011;50327;51.328;12.324;2023-08-06T02:19:33;6.68;;;3.78;;
64075;SDS011;50327;51.328;12.324;2023-08-06T02:21:59;7.70;;;3.92;;
64075;SDS011;50327;51.328;12.324;2023-08-06T02:24:24;8.10;;;4.40;;
64075;SDS011;50327;51.328;12.324;2023-08-06T02:26:49;14.02;;;4.10;;
64075;SDS011;50327;51.328;12.324;2023-08-06T02:29:16;8.80;;;4.20;;
64075;SDS011;50327;51.328;12.324;2023-08-06T02:31:42;8.30;;;4.60;;
64075;SDS011;50327;51.328;12.324;2023-08-06T02:34:07;8.48;;;3.90;;
64075;SDS011;50327;51.328;12.324;2023-08-06T02:36:33;6.38;;;3.05;;
64075;SDS011;50327;51.328;12.324;2023-08-06T02:38:58;7.35;;;3.70;;
64075;SDS011;50327;51.328;12.324;2023-08-06T02:41:23;7.90;;;4.55;;
64075;SDS011;50327;51.328;12.324;2023-08-06T02:43:49;7.03;;;4.13;;
64075;SDS011;50327;51.328;12.324;2023-08-06T02:46:14;8.57;;;4.15;;
64075;SDS011;50327;51.328;12.324;2023-08-06T02:48:40;9.93;;;4.13;;
64075;SDS011;50327;51.328;12.324;2023-08-06T02:51:05;8.10;;;4.57;;
64075;SDS011;50327;51.328;12.324;2023-08-06T02:53:30;8.65;;;4.38;;
64075;SDS011;50327;51.328;12.324;2023-08-06T02:55:56;8.70;;;4.22;;
64075;SDS011;50327;51.328;12.324;2023-08-06T02:58:22;8.00;;;4.75;;
64075;SDS011;50327;51.328;12.324;2023-08-06T03:01:03;7.85;;;4.10;;
64075;SDS011;50327;51.328;12.324;2023-08-06T03:03:30;6.95;;;4.20;;
64075;SDS011;50327;51.328;12.324;2023-08-06T03:05:56;8.13;;;4.20;;
64075;SDS011;50327;51.328;12.324;2023-08-06T03:08:22;7.35;;;4.47;;
64075;SDS011;50327;51.328;12.324;2023-08-06T03:10:48;7.80;;;4.32;;
64075;SDS011;50327;51.328;12.324;2023-08-06T03:13:14;9.10;;;4.55;;
64075;SDS011;50327;51.328;12.324;2023-08-06T03:15:40;8.50;;;4.47;;
64075;SDS011;50327;51.328;12.324;2023-08-06T03:18:06;7.47;;;4.20;;
64075;SDS011;50327;51.328;12.324;2023-08-06T03:20:32;8.35;;;4.57;;
64075;SDS011;50327;51.328;12.324;2023-08-06T03:22:57;10.15;;;5.38;;
64075;SDS011;50327;51.328;12.324;2023-08-06T03:25:23;9.63;;;4.90;;
64075;SDS011;50327;51.328;12.324;2023-08-06T03:27:48;8.73;;;4.53;;
64075;SDS011;50327;51.328;12.324;2023-08-06T03:30:13;13.02;;;5.07;;
64075;SDS011;50327;51.328;12.324;2023-08-06T03:32:39;9.05;;;4.88;;
64075;SDS011;50327;51.328;12.324;2023-08-06T03:35:04;7.65;;;4.57;;
64075;SDS011;50327;51.328;12.324;2023-08-06T03:37:30;8.88;;;4.63;;
64075;SDS011;50327;51.328;12.324;2023-08-06T03:39:55;10.93;;;5.38;;
64075;SDS011;50327;51.328;12.324;2023-08-06T03:42:21;7.80;;;4.93;;
64075;SDS011;50327;51.328;12.324;2023-08-06T03:44:46;8.02;;;5.07;;
64075;SDS011;50327;51.328;12.324;2023-08-06T03:47:12;10.93;;;4.97;;
64075;SDS011;50327;51.328;12.324;2023-08-06T03:49:38;8.57;;;5.00;;
64075;SDS011;50327;51.328;12.324;2023-08-06T03:52:03;7.63;;;4.40;;
64075;SDS011;50327;51.328;12.324;2023-08-06T03:54:29;10.07;;;4.80;;
64075;SDS011;50327;51.328;12.324;2023-08-06T03:56:55;7.78;;;4.53;;
64075;SDS011;50327;51.328;12.324;2023-08-06T03:59:20;10.38;;;4.65;;
64075;SDS011;50327;51.328;12.324;2023-08-06T04:01:46;13.00;;;4.82;;
64075;SDS011;50327;51.328;12.324;2023-08-06T04:04:11;9.00;;;4.38;;
64075;SDS011;50327;51.328;12.324;2023-08-06T04:06:36;8.38;;;4.90;;
64075;SDS011;50327;51.328;12.324;2023-08-06T04:09:02;10.70;;;5.45;;
64075;SDS011;50327;51.328;12.324;2023-08-06T04:11:27;12.63;;;5.40;;
64075;SDS011;50327;51.328;12.324;2023-08-06T04:13:53;9.98;;;5.35;;
64075;SDS011;50327;51.328;12.324;2023-08-06T04:16:20;14.60;;;5.45;;
64075;SDS011;50327;51.328;12.324;2023-08-06T04:18:45;10.50;;;5.57;;
64075;SDS011;50327;51.328;12.324;2023-08-06T04:21:11;10.90;;;5.43;;
64075;SDS011;50327;51.328;12.324;2023-08-06T04:23:36;7.80;;;4.05;;
64075;SDS011;50327;51.328;12.324;2023-08-06T04:26:02;8.25;;;4.20;;
64075;SDS011;50327;51.328;12.324;2023-08-06T04:28:27;6.30;;;4.00;;
64075;SDS011;50327;51.328;12.324;2023-08-06T04:30:52;6.43;;;3.63;;
64075;SDS011;50327;51.328;12.324;2023-08-06T04:33:19;7.63;;;3.25;;
64075;SDS011;50327;51.328;12.324;2023-08-06T04:38:18;6.18;;;3.60;;
64075;SDS011;50327;51.328;12.324;2023-08-06T04:40:43;5.00;;;3.20;;
64075;SDS011;50327;51.328;12.324;2023-08-06T04:43:09;5.50;;;3.05;;
64075;SDS011;50327;51.328;12.324;2023-08-06T04:45:34;5.55;;;2.97;;
64075;SDS011;50327;51.328;12.324;2023-08-06T04:47:59;4.90;;;2.85;;
64075;SDS011;50327;51.328;12.324;2023-08-06T04:50:25;8.80;;;2.72;;
64075;SDS011;50327;51.328;12.324;2023-08-06T04:52:50;6.32;;;2.95;;
64075;SDS011;50327;51.328;12.324;2023-08-06T04:55:15;4.50;;;2.53;;
64075;SDS011;50327;51.328;12.324;2023-08-06T04:57:41;5.72;;;2.45;;
64075;SDS011;50327;51.328;12.324;2023-08-06T05:00:06;5.72;;;2.55;;
64075;SDS011;50327;51.328;12.324;2023-08-06T05:02:32;7.75;;;2.00;;
64075;SDS011;50327;51.328;12.324;2023-08-06T05:04:59;3.90;;;2.22;;
64075;SDS011;50327;51.328;12.324;2023-08-06T05:07:24;9.60;;;2.60;;
64075;SDS011;50327;51.328;12.324;2023-08-06T05:09:50;5.10;;;2.38;;
64075;SDS011;50327;51.328;12.324;2023-08-06T05:12:15;3.70;;;2.20;;
64075;SDS011;50327;51.328;12.324;2023-08-06T05:14:40;4.68;;;2.28;;
64075;SDS011;50327;51.328;12.324;2023-08-06T05:17:06;3.90;;;2.20;;
64075;SDS011;50327;51.328;12.324;2023-08-06T05:19:31;5.05;;;2.75;;
64075;SDS011;50327;51.328;12.324;2023-08-06T05:21:57;5.13;;;2.28;;
64075;SDS011;50327;51.328;12.324;2023-08-06T05:24:22;4.53;;;2.33;;
64075;SDS011;50327;51.328;12.324;2023-08-06T05:26:47;4.55;;;2.38;;
64075;SDS011;50327;51.328;12.324;2023-08-06T05:29:13;5.35;;;2.13;;
64075;SDS011;50327;51.328;12.324;2023-08-06T05:31:39;5.38;;;2.38;;
64075;SDS011;50327;51.328;12.324;2023-08-06T05:34:04;3.78;;;1.85;;
64075;SDS011;50327;51.328;12.324;2023-08-06T05:36:29;4.13;;;2.17;;
64075;SDS011;50327;51.328;12.324;2023-08-06T05:38:55;3.33;;;2.15;;
64075;SDS011;50327;51.328;12.324;2023-08-06T05:41:20;3.45;;;1.90;;
64075;SDS011;50327;51.328;12.324;2023-08-06T05:43:45;3.40;;;2.03;;
64075;SDS011;50327;51.328;12.324;2023-08-06T05:46:11;2.42;;;1.55;;
64075;SDS011;50327;51.328;12.324;2023-08-06T05:48:36;3.25;;;1.80;;
64075;SDS011;50327;51.328;12.324;2023-08-06T05:51:01;4.18;;;1.55;;
64075;SDS011;50327;51.328;12.324;2023-08-06T05:53:27;4.90;;;2.00;;
64075;SDS011;50327;51.328;12.324;2023-08-06T05:55:52;5.45;;;1.98;;
64075;SDS011;50327;51.328;12.324;2023-08-06T05:58:17;3.30;;;1.80;;
64075;SDS011;50327;51.328;12.324;2023-08-06T06:00:45;3.47;;;1.90;;
64075;SDS011;50327;51.328;12.324;2023-08-06T06:03:10;5.22;;;2.35;;
64075;SDS011;50327;51.328;12.324;2023-08-06T06:05:37;4.95;;;1.80;;
64075;SDS011;50327;51.328;12.324;2023-08-06T06:08:03;3.00;;;1.63;;
64075;SDS011;50327;51.328;12.324;2023-08-06T06:10:29;2.92;;;1.50;;
64075;SDS011;50327;51.328;12.324;2023-08-06T06:12:54;4.93;;;1.70;;
64075;SDS011;50327;51.328;12.324;2023-08-06T06:15:20;3.13;;;1.50;;
64075;SDS011;50327;51.328;12.324;2023-08-06T06:17:45;6.93;;;1.77;;
64075;SDS011;50327;51.328;12.324;2023-08-06T06:20:10;8.40;;;1.75;;
64075;SDS011;50327;51.328;12.324;2023-08-06T06:22:36;3.17;;;1.40;;
64075;SDS011;50327;51.328;12.324;2023-08-06T06:25:01;7.68;;;1.60;;
64075;SDS011;50327;51.328;12.324;2023-08-06T06:27:26;5.00;;;1.48;;
64075;SDS011;50327;51.328;12.324;2023-08-06T06:29:52;2.90;;;1.60;;
64075;SDS011;50327;51.328;12.324;2023-08-06T06:32:19;4.13;;;1.58;;
64075;SDS011;50327;51.328;12.324;2023-08-06T06:34:45;3.03;;;1.58;;
64075;SDS011;50327;51.328;12.324;2023-08-06T06:37:10;4.32;;;1.60;;
64075;SDS011;50327;51.328;12.324;2023-08-06T06:39:35;6.70;;;1.95;;
64075;SDS011;50327;51.328;12.324;2023-08-06T06:42:01;3.08;;;1.73;;
64075;SDS011;50327;51.328;12.324;2023-08-06T06:44:26;3.17;;;1.60;;
64075;SDS011;50327;51.328;12.324;2023-08-06T06:46:51;4.03;;;1.70;;
64075;SDS011;50327;51.328;12.324;2023-08-06T06:49:17;3.70;;;1.95;;
64075;SDS011;50327;51.328;12.324;2023-08-06T06:51:42;2.92;;;1.60;;
64075;SDS011;50327;51.328;12.324;2023-08-06T06:54:07;5.20;;;1.80;;
64075;SDS011;50327;51.328;12.324;2023-08-06T06:56:33;3.15;;;1.90;;
64075;SDS011;50327;51.328;12.324;2023-08-06T06:58:58;6.07;;;1.70;;
64075;SDS011;50327;51.328;12.324;2023-08-06T07:01:23;3.30;;;1.60;;
64075;SDS011;50327;51.328;12.324;2023-08-06T07:03:49;4.20;;;1.58;;
64075;SDS011;50327;51.328;12.324;2023-08-06T07:06:14;7.82;;;1.70;;
64075;SDS011;50327;51.328;12.324;2023-08-06T07:08:40;3.30;;;1.70;;
64075;SDS011;50327;51.328;12.324;2023-08-06T07:11:06;6.10;;;1.50;;
64075;SDS011;50327;51.328;12.324;2023-08-06T07:13:31;3.22;;;1.75;;
64075;SDS011;50327;51.328;12.324;2023-08-06T07:15:57;5.63;;;1.70;;
64075;SDS011;50327;51.328;12.324;2023-08-06T07:18:23;3.78;;;1.77;;
64075;SDS011;50327;51.328;12.324;2023-08-06T07:20:52;3.45;;;1.65;;
64075;SDS011;50327;51.328;12.324;2023-08-06T07:23:20;3.55;;;1.90;;
64075;SDS011;50327;51.328;12.324;2023-08-06T07:25:46;4.93;;;1.80;;
64075;SDS011;50327;51.328;12.324;2023-08-06T07:28:12;3.53;;;1.55;;
64075;SDS011;50327;51.328;12.324;2023-08-06T07:30:38;2.58;;;1.60;;
64075;SDS011;50327;51.328;12.324;2023-08-06T07:33:04;6.55;;;2.13;;
64075;SDS011;50327;51.328;12.324;2023-08-06T07:35:29;3.05;;;1.85;;
64075;SDS011;50327;51.328;12.324;2023-08-06T07:37:55;4.47;;;2.20;;
64075;SDS011;50327;51.328;12.324;2023-08-06T07:40:20;3.00;;;1.48;;
64075;SDS011;50327;51.328;12.324;2023-08-06T07:42:46;3.00;;;1.48;;
64075;SDS011;50327;51.328;12.324;2023-08-06T07:45:11;3.55;;;1.30;;
64075;SDS011;50327;51.328;12.324;2023-08-06T07:47:36;4.22;;;1.63;;
64075;SDS011;50327;51.328;12.324;2023-08-06T07:50:02;3.20;;;1.55;;
64075;SDS011;50327;51.328;12.324;2023-08-06T07:52:27;4.95;;;1.63;;
64075;SDS011;50327;51.328;12.324;2023-08-06T07:54:53;2.47;;;1.33;;
64075;SDS011;50327;51.328;12.324;2023-08-06T07:57:18;3.33;;;1.55;;
64075;SDS011;50327;51.328;12.324;2023-08-06T07:59:44;5.03;;;1.55;;
64075;SDS011;50327;51.328;12.324;2023-08-06T08:02:09;4.53;;;1.77;;
64075;SDS011;50327;51.328;12.324;2023-08-06T08:04:35;2.50;;;1.40;;
64075;SDS011;50327;51.328;12.324;2023-08-06T08:07:00;4.22;;;1.70;;
64075;SDS011;50327;51.328;12.324;2023-08-06T08:09:25;5.38;;;1.60;;
64075;SDS011;50327;51.328;12.324;2023-08-06T08:11:50;3.78;;;1.60;;
64075;SDS011;50327;51.328;12.324;2023-08-06T08:14:17;4.03;;;1.65;;
64075;SDS011;50327;51.328;12.324;2023-08-06T08:16:42;3.05;;;1.80;;
64075;SDS011;50327;51.328;12.324;2023-08-06T08:19:08;3.67;;;1.63;;
64075;SDS011;50327;51.328;12.324;2023-08-06T08:21:33;5.88;;;2.08;;
64075;SDS011;50327;51.328;12.324;2023-08-06T08:23:59;2.85;;;1.40;;
64075;SDS011;50327;51.328;12.324;2023-08-06T08:26:25;3.13;;;1.50;;
64075;SDS011;50327;51.328;12.324;2023-08-06T08:28:52;3.42;;;1.65;;
64075;SDS011;50327;51.328;12.324;2023-08-06T08:31:18;3.42;;;1.90;;
64075;SDS011;50327;51.328;12.324;2023-08-06T08:33:43;4.63;;;1.70;;
64075;SDS011;50327;51.328;12.324;2023-08-06T08:36:08;6.35;;;1.60;;
64075;SDS011;50327;51.328;12.324;2023-08-06T08:38:35;2.00;;;1.25;;
64075;SDS011;50327;51.328;12.324;2023-08-06T08:41:00;4.45;;;1.55;;
64075;SDS011;50327;51.328;12.324;2023-08-06T08:43:26;2.72;;;1.45;;
64075;SDS011;50327;51.328;12.324;2023-08-06T08:45:52;2.47;;;1.40;;
64075;SDS011;50327;51.328;12.324;2023-08-06T08:48:23;2.85;;;1.50;;
64075;SDS011;50327;51.328;12.324;2023-08-06T08:50:49;4.57;;;1.58;;
64075;SDS011;50327;51.328;12.324;2023-08-06T08:53:15;2.80;;;1.50;;
64075;SDS011;50327;51.328;12.324;2023-08-06T08:55:42;3.35;;;1.70;;
64075;SDS011;50327;51.328;12.324;2023-08-06T08:58:09;3.05;;;1.55;;
64075;SDS011;50327;51.328;12.324;2023-08-06T09:00:35;3.28;;;1.60;;
64075;SDS011;50327;51.328;12.324;2023-08-06T09:03:01;4.13;;;1.92;;
64075;SDS011;50327;51.328;12.324;2023-08-06T09:05:30;3.72;;;1.50;;
64075;SDS011;50327;51.328;12.324;2023-08-06T09:07:59;3.13;;;1.58;;
64075;SDS011;50327;51.328;12.324;2023-08-06T09:10:28;3.10;;;1.73;;
64075;SDS011;50327;51.328;12.324;2023-08-06T09:12:53;3.72;;;1.77;;
64075;SDS011;50327;51.328;12.324;2023-08-06T09:15:23;3.72;;;1.58;;
64075;SDS011;50327;51.328;12.324;2023-08-06T09:20:18;2.80;;;1.60;;
64075;SDS011;50327;51.328;12.324;2023-08-06T09:22:43;3.28;;;1.70;;
64075;SDS011;50327;51.328;12.324;2023-08-06T09:25:10;4.35;;;1.95;;
64075;SDS011;50327;51.328;12.324;2023-08-06T09:27:38;5.97;;;1.90;;
64075;SDS011;50327;51.328;12.324;2023-08-06T09:30:05;3.67;;;1.80;;
64075;SDS011;50327;51.328;12.324;2023-08-06T09:32:47;3.55;;;1.60;;
64075;SDS011;50327;51.328;12.324;2023-08-06T09:35:16;2.83;;;1.60;;
64075;SDS011;50327;51.328;12.324;2023-08-06T09:37:42;4.47;;;1.67;;
64075;SDS011;50327;51.328;12.324;2023-08-06T09:42:52;3.60;;;1.80;;
64075;SDS011;50327;51.328;12.324;2023-08-06T09:45:18;6.65;;;2.10;;
64075;SDS011;50327;51.328;12.324;2023-08-06T09:47:43;4.47;;;1.98;;
64075;SDS011;50327;51.328;12.324;2023-08-06T09:50:18;6.63;;;2.00;;
64075;SDS011;50327;51.328;12.324;2023-08-06T09:52:45;4.93;;;2.08;;
64075;SDS011;50327;51.328;12.324;2023-08-06T09:55:12;4.32;;;1.83;;
64075;SDS011;50327;51.328;12.324;2023-08-06T09:57:39;4.75;;;1.73;;
64075;SDS011;50327;51.328;12.324;2023-08-06T10:00:06;6.85;;;2.10;;
64075;SDS011;50327;51.328;12.324;2023-08-06T10:02:34;3.53;;;1.60;;
64075;SDS011;50327;51.328;12.324;2023-08-06T10:05:02;3.13;;;1.77;;
64075;SDS011;50327;51.328;12.324;2023-08-06T10:07:28;8.05;;;2.17;;
64075;SDS011;50327;51.328;12.324;2023-08-06T10:09:55;3.85;;;1.85;;
64075;SDS011;50327;51.328;12.324;2023-08-06T10:12:21;4.15;;;1.77;;
64075;SDS011;50327;51.328;12.324;2023-08-06T10:14:47;3.25;;;1.85;;
64075;SDS011;50327;51.328;12.324;2023-08-06T10:17:14;3.20;;;1.90;;
64075;SDS011;50327;51.328;12.324;2023-08-06T10:19:39;8.85;;;1.85;;
64075;SDS011;50327;51.328;12.324;2023-08-06T10:22:15;3.92;;;1.85;;
64075;SDS011;50327;51.328;12.324;2023-08-06T10:27:22;3.10;;;1.58;;
64075;SDS011;50327;51.328;12.324;2023-08-06T10:32:54;3.30;;;2.00;;
64075;SDS011;50327;51.328;12.324;2023-08-06T10:35:35;3.03;;;1.65;;
64075;SDS011;50327;51.328;12.324;2023-08-06T10:40:35;3.85;;;1.90;;
64075;SDS011;50327;51.328;12.324;2023-08-06T10:43:02;4.43;;;1.75;;
64075;SDS011;50327;51.328;12.324;2023-08-06T10:45:28;3.33;;;2.17;;
64075;SDS011;50327;51.328;12.324;2023-08-06T10:47:59;5.30;;;2.08;;
64075;SDS011;50327;51.328;12.324;2023-08-06T10:50:24;5.38;;;2.08;;
64075;SDS011;50327;51.328;12.324;2023-08-06T10:52:50;4.07;;;2.28;;
64075;SDS011;50327;51.328;12.324;2023-08-06T10:55:26;6.18;;;2.70;;
64075;SDS011;50327;51.328;12.324;2023-08-06T10:57:53;6.22;;;2.35;;
64075;SDS011;50327;51.328;12.324;2023-08-06T11:00:19;5.80;;;2.50;;
64075;SDS011;50327;51.328;12.324;2023-08-06T11:02:47;5.53;;;2.22;;
64075;SDS011;50327;51.328;12.324;2023-08-06T11:05:14;4.50;;;2.30;;
64075;SDS011;50327;51.328;12.324;2023-08-06T11:07:39;5.68;;;2.47;;
64075;SDS011;50327;51.328;12.324;2023-08-06T11:10:05;4.25;;;2.00;;
64075;SDS011;50327;51.328;12.324;2023-08-06T11:12:33;6.13;;;2.42;;
64075;SDS011;50327;51.328;12.324;2023-08-06T11:14:59;3.75;;;2.15;;
64075;SDS011;50327;51.328;12.324;2023-08-06T11:17:24;3.83;;;2.17;;
64075;SDS011;50327;51.328;12.324;2023-08-06T11:19:52;3.33;;;1.70;;
64075;SDS011;50327;51.328;12.324;2023-08-06T11:22:20;3.72;;;1.95;;
64075;SDS011;50327;51.328;12.324;2023-08-06T11:24:46;5.07;;;1.73;;
64075;SDS011;50327;51.328;12.324;2023-08-06T11:27:14;3.95;;;2.10;;
64075;SDS011;50327;51.328;12.324;2023-08-06T11:29:41;3.67;;;2.13;;
64075;SDS011;50327;51.328;12.324;2023-08-06T11:32:07;3.30;;;1.95;;
64075;SDS011;50327;51.328;12.324;2023-08-06T11:34:33;2.70;;;1.55;;
64075;SDS011;50327;51.328;12.324;2023-08-06T11:36:58;5.03;;;1.80;;
64075;SDS011;50327;51.328;12.324;2023-08-06T11:39:23;3.45;;;1.50;;
64075;SDS011;50327;51.328;12.324;2023-08-06T11:41:49;2.42;;;1.50;;
64075;SDS011;50327;51.328;12.324;2023-08-06T11:44:14;5.63;;;1.50;;
64075;SDS011;50327;51.328;12.324;2023-08-06T11:46:49;14.20;;;2.28;;
64075;SDS011;50327;51.328;12.324;2023-08-06T11:49:17;3.95;;;1.40;;
64075;SDS011;50327;51.328;12.324;2023-08-06T11:51:46;3.78;;;1.80;;
64075;SDS011;50327;51.328;12.324;2023-08-06T11:54:12;3.45;;;1.50;;
64075;SDS011;50327;51.328;12.324;2023-08-06T11:56:37;3.92;;;1.58;;
64075;SDS011;50327;51.328;12.324;2023-08-06T11:59:03;4.07;;;1.60;;
64075;SDS011;50327;51.328;12.324;2023-08-06T12:01:28;2.45;;;1.30;;
64075;SDS011;50327;51.328;12.324;2023-08-06T12:03:58;2.08;;;1.23;;
64075;SDS011;50327;51.328;12.324;2023-08-06T12:06:27;3.55;;;1.63;;
64075;SDS011;50327;51.328;12.324;2023-08-06T12:08:52;3.22;;;1.40;;
64075;SDS011;50327;51.328;12.324;2023-08-06T12:11:20;6.68;;;2.58;;
64075;SDS011;50327;51.328;12.324;2023-08-06T12:16:15;2.92;;;1.40;;
64075;SDS011;50327;51.328;12.324;2023-08-06T12:18:42;3.85;;;1.58;;
64075;SDS011;50327;51.328;12.324;2023-08-06T12:21:08;2.90;;;1.38;;
64075;SDS011;50327;51.328;12.324;2023-08-06T12:23:33;5.22;;;1.45;;
64075;SDS011;50327;51.328;12.324;2023-08-06T12:25:58;3.47;;;1.45;;
64075;SDS011;50327;51.328;12.324;2023-08-06T12:28:24;2.17;;;1.30;;
64075;SDS011;50327;51.328;12.324;2023-08-06T12:30:49;6.63;;;1.23;;
64075;SDS011;50327;51.328;12.324;2023-08-06T12:33:15;4.07;;;1.42;;
64075;SDS011;50327;51.328;12.324;2023-08-06T12:35:40;3.75;;;1.38;;
64075;SDS011;50327;51.328;12.324;2023-08-06T12:38:06;4.22;;;1.30;;
64075;SDS011;50327;51.328;12.324;2023-08-06T12:40:31;3.15;;;1.23;;
64075;SDS011;50327;51.328;12.324;2023-08-06T12:42:56;2.45;;;1.33;;
64075;SDS011;50327;51.328;12.324;2023-08-06T12:45:23;2.97;;;1.40;;
64075;SDS011;50327;51.328;12.324;2023-08-06T12:47:49;4.57;;;1.30;;
64075;SDS011;50327;51.328;12.324;2023-08-06T12:50:14;6.50;;;1.60;;
64075;SDS011;50327;51.328;12.324;2023-08-06T12:52:40;2.65;;;1.40;;
64075;SDS011;50327;51.328;12.324;2023-08-06T12:55:05;3.00;;;1.33;;
64075;SDS011;50327;51.328;12.324;2023-08-06T12:57:31;1.52;;;1.13;;
64075;SDS011;50327;51.328;12.324;2023-08-06T12:59:56;5.18;;;1.33;;
64075;SDS011;50327;51.328;12.324;2023-08-06T13:02:21;1.90;;;1.13;;
64075;SDS011;50327;51.328;12.324;2023-08-06T13:04:47;2.65;;;1.20;;
64075;SDS011;50327;51.328;12.324;2023-08-06T13:07:12;3.95;;;1.20;;
64075;SDS011;50327;51.328;12.324;2023-08-06T13:09:38;3.53;;;1.60;;
64075;SDS011;50327;51.328;12.324;2023-08-06T13:12:03;4.50;;;1.83;;
64075;SDS011;50327;51.328;12.324;2023-08-06T13:14:31;2.40;;;1.20;;
64075;SDS011;50327;51.328;12.324;2023-08-06T13:16:56;3.53;;;1.25;;
64075;SDS011;50327;51.328;12.324;2023-08-06T13:19:21;2.83;;;1.23;;
64075;SDS011;50327;51.328;12.324;2023-08-06T13:24:13;3.83;;;1.23;;
64075;SDS011;50327;51.328;12.324;2023-08-06T13:26:39;2.15;;;1.30;;
64075;SDS011;50327;51.328;12.324;2023-08-06T13:29:04;2.88;;;1.20;;
64075;SDS011;50327;51.328;12.324;2023-08-06T13:31:32;2.78;;;1.50;;
64075;SDS011;50327;51.328;12.324;2023-08-06T13:33:58;3.60;;;1.30;;
64075;SDS011;50327;51.328;12.324;2023-08-06T13:36:24;2.22;;;1.10;;
64075;SDS011;50327;51.328;12.324;2023-08-06T13:38:52;2.83;;;1.30;;
64075;SDS011;50327;51.328;12.324;2023-08-06T13:41:18;3.05;;;1.08;;
64075;SDS011;50327;51.328;12.324;2023-08-06T13:43:44;1.83;;;1.10;;
64075;SDS011;50327;51.328;12.324;2023-08-06T13:46:09;2.30;;;1.00;;
64075;SDS011;50327;51.328;12.324;2023-08-06T13:48:39;2.53;;;1.13;;
64075;SDS011;50327;51.328;12.324;2023-08-06T13:51:05;2.58;;;1.20;;
64075;SDS011;50327;51.328;12.324;2023-08-06T13:53:30;1.77;;;1.00;;
64075;SDS011;50327;51.328;12.324;2023-08-06T13:55:56;2.10;;;1.10;;
64075;SDS011;50327;51.328;12.324;2023-08-06T13:58:22;6.82;;;1.23;;
64075;SDS011;50327;51.328;12.324;2023-08-06T14:00:48;3.97;;;1.13;;
64075;SDS011;50327;51.328;12.324;2023-08-06T14:03:14;2.97;;;1.00;;
64075;SDS011;50327;51.328;12.324;2023-08-06T14:05:39;2.30;;;1.10;;
64075;SDS011;50327;51.328;12.324;2023-08-06T14:08:04;1.92;;;1.10;;
64075;SDS011;50327;51.328;12.324;2023-08-06T14:10:30;2.30;;;1.02;;
64075;SDS011;50327;51.328;12.324;2023-08-06T14:12:56;3.28;;;1.08;;
64075;SDS011;50327;51.328;12.324;2023-08-06T14:15:21;2.38;;;1.25;;
64075;SDS011;50327;51.328;12.324;2023-08-06T14:17:46;2.65;;;1.20;;
64075;SDS011;50327;51.328;12.324;2023-08-06T14:20:12;2.28;;;1.20;;
64075;SDS011;50327;51.328;12.324;2023-08-06T14:22:37;2.13;;;1.08;;
64075;SDS011;50327;51.328;12.324;2023-08-06T14:25:03;3.30;;;0.98;;
64075;SDS011;50327;51.328;12.324;2023-08-06T14:27:29;2.97;;;1.23;;
64075;SDS011;50327;51.328;12.324;2023-08-06T14:29:54;1.88;;;1.02;;
64075;SDS011;50327;51.328;12.324;2023-08-06T14:32:19;1.35;;;0.88;;
64075;SDS011;50327;51.328;12.324;2023-08-06T14:34:46;2.00;;;1.10;;
64075;SDS011;50327;51.328;12.324;2023-08-06T14:37:11;4.45;;;1.40;;
64075;SDS011;50327;51.328;12.324;2023-08-06T14:39:37;5.32;;;0.90;;
64075;SDS011;50327;51.328;12.324;2023-08-06T14:42:03;1.63;;;1.25;;
64075;SDS011;50327;51.328;12.324;2023-08-06T14:44:29;3.35;;;1.13;;
64075;SDS011;50327;51.328;12.324;2023-08-06T14:46:55;2.65;;;1.00;;
64075;SDS011;50327;51.328;12.324;2023-08-06T14:49:20;1.80;;;0.90;;
64075;SDS011;50327;51.328;12.324;2023-08-06T14:51:45;3.78;;;1.17;;
64075;SDS011;50327;51.328;12.324;2023-08-06T14:54:11;2.28;;;1.20;;